Time;durP1;ratioP1;P1;durP2;ratioP2;P2;SDS_P1;SDS_P2;PMS_P1;PMS_P2;Temp;Humidity;BMP_temperature;BMP_pressure;BME280_temperature;BME280_humidity;BME280_pressure;Samples;Min_cycle;Max_cycle;Signal;HPM_P1;HPM_P2
2021/12/30 00:00:28;;;;;;;2.50;1.10;;;11.30;99.90;;;;;;9174520;19;20458;-75
2021/12/30 00:03:33;;;;;;;3.30;1.10;;;11.30;99.90;;;;;;9172897;19;20026;-74
2021/12/30 00:06:40;;;;;;;2.95;1.45;;;11.30;99.90;;;;;;9172912;19;20019;-74
2021/12/30 00:09:48;;;;;;;2.72;1.10;;;11.30;99.90;;;;;;9170761;19;20359;-73
2021/12/30 00:12:54;;;;;;;2.65;1.15;;;11.30;99.90;;;;;;9170837;19;20409;-74
2021/12/30 00:15:59;;;;;;;1.83;1.05;;;11.30;99.90;;;;;;9171345;19;20475;-73
2021/12/30 00:19:05;;;;;;;2.95;1.48;;;11.20;99.90;;;;;;9171261;19;20011;-72
2021/12/30 00:22:10;;;;;;;2.72;1.10;;;11.20;99.90;;;;;;9171371;19;20022;-74
2021/12/30 00:25:18;;;;;;;2.92;1.35;;;11.20;99.90;;;;;;9172214;19;20014;-74
2021/12/30 00:28:26;;;;;;;2.42;1.20;;;11.20;99.90;;;;;;9172021;19;20476;-74
2021/12/30 00:31:31;;;;;;;2.53;1.00;;;11.20;99.90;;;;;;9169224;19;20368;-74
2021/12/30 00:34:36;;;;;;;3.42;1.20;;;11.10;99.90;;;;;;9170963;19;20407;-74
2021/12/30 00:37:41;;;;;;;3.42;1.50;;;11.10;99.90;;;;;;9171569;19;20594;-74
2021/12/30 00:40:49;;;;;;;2.03;1.00;;;11.10;99.90;;;;;;9170502;19;20014;-75
2021/12/30 00:43:54;;;;;;;2.05;1.10;;;11.10;99.90;;;;;;9173123;19;20419;-74
2021/12/30 00:47:00;;;;;;;2.08;1.10;;;11.10;99.90;;;;;;9173414;19;20019;-73
2021/12/30 00:50:06;;;;;;;2.22;1.30;;;11.10;99.90;;;;;;9173809;19;20015;-73
2021/12/30 00:53:11;;;;;;;2.83;1.17;;;11.10;99.90;;;;;;9167944;19;20344;-73
2021/12/30 00:56:20;;;;;;;1.75;1.00;;;11.00;99.90;;;;;;9169293;19;20018;-73
2021/12/30 00:59:24;;;;;;;2.30;1.15;;;11.00;99.90;;;;;;9169718;19;20014;-74
2021/12/30 01:02:29;;;;;;;2.30;1.15;;;11.00;99.90;;;;;;9170645;19;20018;-73
2021/12/30 01:05:35;;;;;;;2.50;1.20;;;11.00;99.90;;;;;;9172271;19;20022;-74
2021/12/30 01:08:40;;;;;;;1.80;1.05;;;11.00;99.90;;;;;;9169439;19;20018;-73
2021/12/30 01:11:48;;;;;;;1.58;0.90;;;11.00;99.90;;;;;;9170943;19;20029;-73
2021/12/30 01:14:53;;;;;;;2.22;1.20;;;10.90;99.90;;;;;;9173508;19;20019;-73
2021/12/30 01:18:21;;;;;;;2.60;1.33;;;10.90;99.90;;;;;;9175920;19;20003;-74
2021/12/30 01:21:24;;;;;;;2.55;1.00;;;10.90;99.90;;;;;;9177013;19;20014;-74
2021/12/30 01:24:30;;;;;;;2.05;1.05;;;10.80;99.90;;;;;;9177544;19;20022;-73
2021/12/30 01:27:40;;;;;;;2.42;1.20;;;10.80;99.90;;;;;;9180169;19;20015;-74
2021/12/30 01:30:46;;;;;;;2.63;1.33;;;10.80;99.90;;;;;;9179981;19;20021;-74
2021/12/30 01:33:51;;;;;;;2.15;1.00;;;10.70;99.90;;;;;;9181141;19;20026;-74
2021/12/30 01:36:59;;;;;;;1.98;0.98;;;10.70;99.90;;;;;;9176648;19;20021;-74
2021/12/30 01:40:04;;;;;;;2.63;1.10;;;10.70;99.90;;;;;;9179010;19;20814;-73
2021/12/30 01:43:12;;;;;;;2.63;0.98;;;10.60;99.90;;;;;;9176945;19;20011;-74
2021/12/30 01:46:18;;;;;;;3.33;1.40;;;10.60;99.90;;;;;;9179079;19;20011;-73
2021/12/30 01:49:24;;;;;;;2.47;1.20;;;10.60;99.90;;;;;;9178116;19;20022;-73
2021/12/30 01:52:30;;;;;;;2.90;1.10;;;10.60;99.90;;;;;;9178520;19;20014;-74
2021/12/30 01:55:37;;;;;;;2.30;1.13;;;10.60;99.90;;;;;;9177104;19;20479;-74
2021/12/30 01:58:44;;;;;;;2.72;1.10;;;10.60;99.90;;;;;;9174790;19;20372;-72
2021/12/30 02:01:53;;;;;;;2.20;1.25;;;10.60;99.90;;;;;;9174579;19;20023;-74
2021/12/30 02:05:00;;;;;;;2.92;1.10;;;10.60;99.90;;;;;;9175397;19;20487;-73
2021/12/30 02:08:06;;;;;;;3.72;1.42;;;10.60;99.90;;;;;;9175237;19;20486;-72
2021/12/30 02:11:12;;;;;;;2.67;1.20;;;10.60;99.90;;;;;;9176595;19;20025;-74
2021/12/30 02:14:19;;;;;;;2.67;1.17;;;10.60;99.90;;;;;;9179166;19;20014;-72
2021/12/30 02:17:24;;;;;;;2.42;1.10;;;10.60;99.90;;;;;;9175321;19;20494;-73
2021/12/30 02:20:48;;;;;;;2.78;1.38;;;10.60;99.90;;;;;;9174335;19;20018;-73
2021/12/30 02:23:53;;;;;;;2.80;1.17;;;10.70;99.90;;;;;;9176417;19;20052;-74
2021/12/30 02:26:59;;;;;;;2.53;1.25;;;10.70;99.90;;;;;;9176769;19;20025;-73
2021/12/30 02:30:06;;;;;;;3.38;1.20;;;10.70;99.90;;;;;;9177940;19;20483;-75
2021/12/30 02:33:12;;;;;;;2.55;1.25;;;10.70;99.90;;;;;;9175008;19;20048;-73
2021/12/30 02:36:25;;;;;;;2.65;1.25;;;10.80;99.90;;;;;;9177031;19;20914;-74
2021/12/30 02:39:30;;;;;;;2.97;1.27;;;10.80;99.90;;;;;;9172784;19;20029;-73
2021/12/30 02:42:35;;;;;;;3.22;1.20;;;10.80;99.90;;;;;;9175964;19;20018;-74
2021/12/30 02:45:40;;;;;;;3.67;1.48;;;10.80;99.90;;;;;;9175595;19;20471;-74
2021/12/30 02:48:45;;;;;;;2.15;1.13;;;10.90;99.90;;;;;;9174843;19;20024;-74
2021/12/30 02:51:53;;;;;;;2.63;1.30;;;10.90;99.90;;;;;;9176478;19;20022;-74
2021/12/30 02:54:58;;;;;;;2.55;1.25;;;10.90;99.90;;;;;;9170029;19;20025;-73
2021/12/30 02:58:03;;;;;;;3.10;1.30;;;10.90;99.90;;;;;;9173788;19;20010;-73
2021/12/30 03:01:12;;;;;;;3.78;1.67;;;10.90;99.90;;;;;;9172850;19;20015;-73
2021/12/30 03:04:17;;;;;;;3.30;1.50;;;11.00;99.90;;;;;;9176638;19;20006;-73
2021/12/30 03:07:25;;;;;;;3.75;1.35;;;11.00;99.90;;;;;;9175926;19;20140;-73
2021/12/30 03:10:30;;;;;;;4.05;1.40;;;11.00;99.90;;;;;;9174468;19;20450;-73
2021/12/30 03:13:36;;;;;;;2.45;1.20;;;11.10;99.90;;;;;;9173518;19;20022;-73
2021/12/30 03:16:42;;;;;;;3.42;1.40;;;11.10;99.90;;;;;;9173695;19;20021;-73
2021/12/30 03:19:47;;;;;;;3.88;1.70;;;11.10;99.90;;;;;;9173075;19;20014;-74
2021/12/30 03:22:55;;;;;;;3.05;1.30;;;11.10;99.90;;;;;;9174926;19;20014;-74
2021/12/30 03:26:00;;;;;;;2.50;1.27;;;11.10;99.90;;;;;;9174149;19;20014;-72
2021/12/30 03:29:06;;;;;;;3.13;1.42;;;11.20;99.90;;;;;;9175442;19;20022;-75
2021/12/30 03:32:11;;;;;;;4.22;1.70;;;11.20;99.90;;;;;;9175311;19;20014;-74
2021/12/30 03:35:17;;;;;;;3.72;1.60;;;11.20;99.90;;;;;;9172307;19;20471;-73
2021/12/30 03:38:24;;;;;;;4.57;1.73;;;11.30;99.90;;;;;;9170994;19;20053;-75
2021/12/30 03:41:31;;;;;;;2.92;1.20;;;11.30;99.90;;;;;;9173480;19;20023;-73
2021/12/30 03:44:36;;;;;;;2.90;1.15;;;11.30;99.90;;;;;;9172144;19;20037;-74
2021/12/30 03:47:44;;;;;;;3.17;1.35;;;11.40;99.90;;;;;;9172127;19;20483;-72
2021/12/30 03:50:51;;;;;;;2.78;1.40;;;11.40;99.90;;;;;;9175806;19;20014;-75
2021/12/30 03:54:00;;;;;;;2.45;1.10;;;11.40;99.90;;;;;;9170244;19;20485;-74
2021/12/30 03:57:05;;;;;;;3.65;1.58;;;11.50;99.90;;;;;;9170317;19;20018;-75
2021/12/30 04:00:12;;;;;;;2.55;1.27;;;11.50;99.90;;;;;;9172550;19;20039;-74
2021/12/30 04:03:18;;;;;;;2.78;1.20;;;11.60;99.90;;;;;;9170346;19;20015;-74
2021/12/30 04:06:24;;;;;;;3.20;1.30;;;11.60;99.90;;;;;;9173395;19;20026;-74
2021/12/30 04:09:31;;;;;;;3.03;1.20;;;11.60;99.90;;;;;;9173271;19;20022;-73
2021/12/30 04:12:36;;;;;;;2.38;1.00;;;11.60;99.90;;;;;;9172834;19;20022;-73
2021/12/30 04:15:41;;;;;;;2.70;1.10;;;11.70;99.90;;;;;;9174287;19;20030;-73
2021/12/30 04:18:48;;;;;;;2.28;1.10;;;11.70;99.90;;;;;;9171293;19;20027;-72
2021/12/30 04:21:56;;;;;;;2.85;1.10;;;11.70;99.90;;;;;;9173126;19;20049;-73
2021/12/30 04:25:03;;;;;;;2.70;1.13;;;11.80;99.90;;;;;;9171683;19;20056;-73
2021/12/30 04:28:08;;;;;;;1.10;0.70;;;11.80;99.90;;;;;;9171723;19;20360;-74
2021/12/30 04:31:14;;;;;;;2.95;1.30;;;11.80;99.90;;;;;;9173250;19;20044;-73
2021/12/30 04:34:19;;;;;;;1.88;1.00;;;11.80;99.90;;;;;;9172294;19;20019;-74
2021/12/30 04:37:24;;;;;;;1.65;0.90;;;11.80;99.90;;;;;;9170188;19;20022;-74
2021/12/30 04:40:31;;;;;;;2.22;1.05;;;11.80;99.90;;;;;;9170023;19;20026;-74
2021/12/30 04:43:37;;;;;;;1.95;1.00;;;11.90;99.90;;;;;;9171747;19;20010;-75
2021/12/30 04:46:42;;;;;;;2.15;1.00;;;11.90;99.90;;;;;;9171926;19;20021;-74
2021/12/30 04:49:48;;;;;;;2.33;0.90;;;11.90;99.90;;;;;;9168328;19;20551;-72
2021/12/30 04:52:53;;;;;;;1.70;0.90;;;11.90;99.90;;;;;;9166233;19;20039;-72
2021/12/30 04:56:01;;;;;;;1.63;0.88;;;11.90;99.90;;;;;;9171705;19;20400;-73
2021/12/30 04:59:06;;;;;;;1.50;0.70;;;11.90;99.90;;;;;;9171968;19;20017;-73
2021/12/30 05:02:12;;;;;;;1.60;0.73;;;12.00;99.90;;;;;;9169049;19;20352;-73
2021/12/30 05:05:17;;;;;;;1.63;0.70;;;12.00;99.90;;;;;;9169068;19;20006;-73
2021/12/30 05:08:24;;;;;;;1.25;0.68;;;12.00;99.90;;;;;;9169765;19;20018;-73
2021/12/30 05:11:31;;;;;;;1.08;0.52;;;12.00;99.90;;;;;;9171788;19;20023;-73
2021/12/30 05:14:36;;;;;;;1.02;0.57;;;12.00;99.90;;;;;;9168521;19;20014;-73
2021/12/30 05:17:42;;;;;;;0.93;0.50;;;12.00;99.90;;;;;;9171942;19;20019;-73
2021/12/30 05:20:47;;;;;;;0.77;0.43;;;12.10;99.90;;;;;;9169859;19;20486;-72
2021/12/30 05:23:52;;;;;;;1.15;0.55;;;12.10;99.90;;;;;;9169122;19;20483;-73
2021/12/30 05:27:00;;;;;;;0.50;0.30;;;12.10;99.90;;;;;;9168974;19;20018;-73
2021/12/30 05:30:06;;;;;;;0.80;0.50;;;12.10;99.90;;;;;;9168117;19;20025;-73
2021/12/30 05:33:11;;;;;;;1.00;0.38;;;12.10;99.90;;;;;;9170001;19;20475;-72
2021/12/30 05:36:16;;;;;;;0.80;0.40;;;12.10;99.90;;;;;;9170383;19;20033;-73
2021/12/30 05:39:21;;;;;;;1.05;0.40;;;12.10;99.90;;;;;;9172472;19;20015;-73
2021/12/30 05:42:29;;;;;;;1.52;0.60;;;12.10;99.90;;;;;;9167400;19;20082;-73
2021/12/30 05:45:34;;;;;;;0.75;0.50;;;12.20;99.90;;;;;;9167880;19;20354;-73
2021/12/30 05:48:39;;;;;;;0.85;0.60;;;12.20;99.90;;;;;;9168595;19;20059;-73
2021/12/30 05:51:44;;;;;;;0.90;0.52;;;12.20;99.90;;;;;;9169113;19;20014;-74
2021/12/30 05:54:49;;;;;;;1.02;0.52;;;12.30;99.90;;;;;;9163655;19;20025;-72
2021/12/30 05:58:00;;;;;;;0.55;0.55;;;12.30;99.90;;;;;;9171342;19;20038;-74
2021/12/30 06:01:05;;;;;;;0.80;0.57;;;12.30;99.90;;;;;;9175541;19;20018;-75
2021/12/30 06:04:11;;;;;;;0.98;0.60;;;12.30;99.90;;;;;;9179172;19;20021;-73
2021/12/30 06:07:16;;;;;;;1.40;0.68;;;12.30;99.90;;;;;;9178211;19;20026;-73
2021/12/30 06:10:22;;;;;;;0.52;0.40;;;12.40;99.90;;;;;;9178513;19;20014;-74
2021/12/30 06:13:30;;;;;;;1.02;0.77;;;12.40;99.90;;;;;;9179775;19;20022;-74
2021/12/30 06:16:35;;;;;;;0.68;0.40;;;12.40;99.90;;;;;;9179300;19;20025;-74
2021/12/30 06:19:42;;;;;;;0.60;0.57;;;12.40;99.90;;;;;;9180737;19;20019;-74
2021/12/30 06:22:49;;;;;;;0.68;0.50;;;12.50;99.90;;;;;;9184005;19;20033;-74
2021/12/30 06:25:54;;;;;;;0.90;0.60;;;12.40;99.90;;;;;;9174077;19;20015;-73
2021/12/30 06:29:01;;;;;;;0.98;0.52;;;12.50;99.90;;;;;;9172876;19;20021;-73
2021/12/30 06:32:08;;;;;;;0.90;0.60;;;12.50;99.90;;;;;;9171757;19;20029;-74
2021/12/30 06:35:13;;;;;;;0.75;0.55;;;12.50;99.90;;;;;;9170404;19;20491;-73
2021/12/30 06:38:18;;;;;;;0.55;0.30;;;12.60;99.90;;;;;;9178863;19;20078;-73
2021/12/30 06:41:24;;;;;;;0.30;0.30;;;12.60;99.90;;;;;;9180168;19;20011;-73
2021/12/30 06:44:31;;;;;;;0.60;0.30;;;12.60;99.90;;;;;;9179836;19;20018;-74
2021/12/30 06:47:36;;;;;;;0.40;0.40;;;12.60;99.90;;;;;;9176626;19;20026;-74
2021/12/30 06:50:41;;;;;;;0.35;0.32;;;12.60;99.90;;;;;;9177338;19;20010;-73
2021/12/30 06:53:47;;;;;;;0.65;0.45;;;12.60;99.90;;;;;;9174924;19;20074;-73
2021/12/30 06:56:55;;;;;;;0.50;0.30;;;12.70;99.90;;;;;;9177522;19;20037;-73
2021/12/30 07:00:03;;;;;;;0.32;0.30;;;12.70;99.90;;;;;;9180203;19;20498;-73
2021/12/30 07:03:08;;;;;;;0.22;0.20;;;12.70;99.90;;;;;;9178007;19;20052;-74
2021/12/30 07:06:13;;;;;;;0.30;0.30;;;12.70;99.90;;;;;;9179066;19;20015;-73
2021/12/30 07:09:18;;;;;;;0.15;0.15;;;12.70;99.90;;;;;;9175576;19;20022;-73
2021/12/30 07:12:24;;;;;;;0.05;0.05;;;12.80;99.90;;;;;;9173994;19;20015;-74
2021/12/30 07:15:31;;;;;;;0.10;0.00;;;12.80;99.90;;;;;;9176466;19;20010;-74
2021/12/30 07:18:36;;;;;;;0.08;0.08;;;12.80;99.90;;;;;;9176029;19;20868;-73
2021/12/30 07:21:42;;;;;;;0.03;0.00;;;12.80;99.90;;;;;;9177399;19;20018;-73
2021/12/30 07:24:48;;;;;;;0.00;0.00;;;12.80;99.90;;;;;;9178268;19;20025;-74
2021/12/30 07:27:55;;;;;;;0.00;0.00;;;12.80;99.90;;;;;;9178867;19;20018;-73
2021/12/30 07:31:02;;;;;;;0.10;0.00;;;12.80;99.90;;;;;;9174415;19;20014;-73
2021/12/30 07:34:08;;;;;;;0.05;0.00;;;12.80;99.90;;;;;;9176694;19;20015;-74
2021/12/30 07:37:14;;;;;;;0.00;0.00;;;12.90;99.90;;;;;;9177433;19;20025;-73
2021/12/30 07:40:20;;;;;;;0.10;0.10;;;12.90;99.90;;;;;;9177418;19;20105;-74
2021/12/30 07:43:25;;;;;;;0.05;0.05;;;12.90;99.90;;;;;;9175888;19;20019;-74
2021/12/30 07:46:33;;;;;;;0.13;0.00;;;12.90;99.90;;;;;;9176244;19;20023;-73
2021/12/30 07:49:38;;;;;;;0.00;0.00;;;12.90;99.90;;;;;;9176782;19;20022;-74
2021/12/30 07:52:43;;;;;;;0.20;0.10;;;12.90;99.90;;;;;;9174112;19;20078;-74
2021/12/30 07:55:49;;;;;;;0.00;0.00;;;12.90;99.90;;;;;;9170782;19;20007;-73
2021/12/30 07:58:54;;;;;;;0.10;0.00;;;13.00;99.90;;;;;;9172761;19;20041;-74
2021/12/30 08:02:05;;;;;;;0.13;0.00;;;13.00;99.90;;;;;;9174469;19;20021;-73
2021/12/30 08:05:11;;;;;;;0.10;0.00;;;13.00;99.90;;;;;;9175210;19;20033;-75
2021/12/30 08:08:16;;;;;;;0.38;0.00;;;13.00;99.90;;;;;;9174706;19;20534;-73
2021/12/30 08:11:21;;;;;;;0.00;0.00;;;13.00;99.90;;;;;;9176379;19;20015;-74
2021/12/30 08:14:26;;;;;;;0.13;0.00;;;13.00;99.90;;;;;;9172974;19;20333;-74
2021/12/30 08:17:34;;;;;;;0.30;0.10;;;13.10;99.90;;;;;;9173601;19;20341;-74
2021/12/30 08:20:39;;;;;;;0.13;0.08;;;13.00;99.90;;;;;;9173752;19;20437;-74
2021/12/30 08:23:44;;;;;;;0.05;0.05;;;13.00;99.90;;;;;;9174205;19;20023;-74
2021/12/30 08:26:49;;;;;;;0.00;0.00;;;13.00;99.90;;;;;;9174962;19;20040;-73
2021/12/30 08:29:54;;;;;;;0.00;0.00;;;13.10;99.90;;;;;;9176032;19;20021;-72
2021/12/30 08:33:01;;;;;;;0.10;0.00;;;13.10;99.90;;;;;;9175675;19;20625;-74
2021/12/30 08:36:07;;;;;;;0.00;0.00;;;13.10;99.90;;;;;;9172550;19;20019;-74
2021/12/30 08:39:12;;;;;;;0.10;0.00;;;13.10;99.90;;;;;;9171822;19;20018;-72
2021/12/30 08:42:22;;;;;;;0.17;0.10;;;13.10;99.90;;;;;;9174695;19;20063;-74
2021/12/30 08:45:27;;;;;;;0.22;0.00;;;13.10;99.90;;;;;;9176092;19;20052;-75
2021/12/30 08:48:36;;;;;;;0.15;0.03;;;13.10;99.90;;;;;;9176245;19;20506;-74
2021/12/30 08:51:41;;;;;;;0.22;0.10;;;13.10;99.90;;;;;;9177116;19;20014;-73
2021/12/30 08:54:47;;;;;;;0.10;0.10;;;13.10;99.90;;;;;;9173535;19;20018;-75
2021/12/30 08:57:52;;;;;;;0.32;0.20;;;13.10;99.90;;;;;;9175482;19;20082;-74
2021/12/30 09:00:57;;;;;;;0.20;0.10;;;13.10;99.90;;;;;;9174095;19;20458;-74
2021/12/30 09:04:05;;;;;;;0.10;0.10;;;13.20;99.90;;;;;;9174833;19;20446;-74
2021/12/30 09:07:11;;;;;;;0.00;0.00;;;13.20;99.90;;;;;;9174809;19;20034;-74
2021/12/30 09:10:18;;;;;;;0.20;0.10;;;13.10;99.90;;;;;;9176006;19;20026;-73
2021/12/30 09:13:23;;;;;;;0.20;0.10;;;13.20;99.90;;;;;;9175255;19;20648;-75
2021/12/30 09:16:28;;;;;;;0.40;0.10;;;13.20;99.90;;;;;;9173332;19;20018;-74
2021/12/30 09:19:36;;;;;;;0.38;0.20;;;13.20;99.90;;;;;;9170917;19;20022;-74
2021/12/30 09:22:41;;;;;;;0.10;0.10;;;13.20;99.90;;;;;;9172535;19;20030;-74
2021/12/30 09:25:46;;;;;;;0.38;0.20;;;13.20;99.90;;;;;;9173511;19;20522;-73
2021/12/30 09:28:51;;;;;;;0.15;0.10;;;13.20;99.90;;;;;;9177461;19;20011;-75
2021/12/30 09:31:58;;;;;;;0.50;0.30;;;13.20;99.90;;;;;;9178019;19;20017;-75
2021/12/30 09:35:07;;;;;;;0.57;0.20;;;13.30;99.90;;;;;;9176972;19;20025;-75
2021/12/30 09:38:12;;;;;;;0.28;0.25;;;13.30;99.90;;;;;;9175265;19;20018;-74
2021/12/30 09:41:17;;;;;;;0.45;0.20;;;13.30;99.90;;;;;;9175795;19;20038;-75
2021/12/30 09:44:22;;;;;;;0.20;0.20;;;13.30;99.90;;;;;;9176147;19;20022;-75
2021/12/30 09:47:27;;;;;;;0.20;0.20;;;13.30;99.90;;;;;;9177232;19;20019;-75
2021/12/30 09:50:38;;;;;;;0.60;0.30;;;13.40;99.90;;;;;;9180142;19;20021;-75
2021/12/30 09:53:43;;;;;;;0.22;0.17;;;13.40;99.90;;;;;;9175113;19;20018;-74
2021/12/30 09:56:48;;;;;;;0.38;0.20;;;13.40;99.90;;;;;;9177816;19;20023;-74
2021/12/30 09:59:53;;;;;;;0.43;0.25;;;13.40;99.90;;;;;;9181281;19;20030;-74
2021/12/30 10:02:58;;;;;;;1.00;0.45;;;13.40;99.90;;;;;;9176197;19;20632;-74
2021/12/30 10:06:11;;;;;;;0.40;0.30;;;13.50;99.90;;;;;;9175243;19;20018;-74
2021/12/30 10:09:17;;;;;;;0.28;0.20;;;13.50;99.90;;;;;;9177759;19;21094;-74
2021/12/30 10:12:39;;;;;;;0.22;0.20;;;13.50;99.90;;;;;;9177735;19;20397;-74
2021/12/30 10:15:45;;;;;;;0.40;0.20;;;13.50;99.90;;;;;;9177943;19;20011;-73
2021/12/30 10:18:54;;;;;;;0.98;0.38;;;13.60;99.90;;;;;;9177434;19;20628;-74
2021/12/30 10:22:11;;;;;;;0.65;0.50;;;13.60;99.90;;;;;;9176782;19;20018;-74
2021/12/30 10:25:30;;;;;;;0.30;0.25;;;13.60;99.90;;;;;;9174101;19;20022;-74
2021/12/30 10:28:40;;;;;;;0.28;0.20;;;13.60;99.90;;;;;;9174324;19;20036;-74
2021/12/30 10:31:47;;;;;;;0.80;0.52;;;13.70;99.90;;;;;;9175136;19;20034;-75
2021/12/30 10:35:09;;;;;;;0.65;0.40;;;13.70;99.90;;;;;;9173087;19;20553;-74
2021/12/30 10:38:17;;;;;;;0.55;0.30;;;13.70;99.90;;;;;;9174338;19;20014;-73
2021/12/30 10:41:25;;;;;;;0.85;0.50;;;13.70;99.90;;;;;;9170507;19;20033;-74
2021/12/30 10:44:49;;;;;;;0.45;0.30;;;13.80;99.90;;;;;;9174415;19;20116;-74
2021/12/30 10:47:57;;;;;;;0.40;0.30;;;13.80;99.90;;;;;;9171044;19;20014;-76
2021/12/30 10:51:13;;;;;;;0.88;0.40;;;13.80;99.90;;;;;;9173317;19;20022;-74
2021/12/30 10:54:25;;;;;;;0.60;0.40;;;13.80;99.90;;;;;;9173375;19;20475;-75
2021/12/30 10:57:31;;;;;;;0.35;0.28;;;13.90;99.90;;;;;;9169189;19;20479;-74
2021/12/30 11:00:37;;;;;;;0.70;0.50;;;13.90;99.90;;;;;;9170349;19;20020;-74
2021/12/30 11:03:42;;;;;;;0.57;0.30;;;13.90;99.90;;;;;;9170340;19;20077;-75
2021/12/30 11:06:49;;;;;;;0.70;0.30;;;14.00;99.90;;;;;;9174298;19;20022;-75
2021/12/30 11:09:59;;;;;;;0.40;0.30;;;14.00;99.90;;;;;;9172754;19;20015;-75
2021/12/30 11:13:12;;;;;;;0.55;0.30;;;14.00;99.90;;;;;;9171849;19;20022;-75
2021/12/30 11:16:17;;;;;;;0.20;0.20;;;14.00;99.90;;;;;;9172314;19;20989;-75
2021/12/30 11:19:23;;;;;;;0.60;0.32;;;14.10;99.90;;;;;;9169535;19;20014;-75
2021/12/30 11:22:32;;;;;;;0.43;0.30;;;14.10;99.90;;;;;;9170395;19;20026;-75
2021/12/30 11:25:39;;;;;;;0.28;0.25;;;14.10;99.90;;;;;;9171050;19;20410;-75
2021/12/30 11:28:44;;;;;;;0.35;0.30;;;14.20;99.90;;;;;;9170918;19;20029;-75
2021/12/30 11:31:49;;;;;;;0.30;0.20;;;14.20;99.90;;;;;;9171828;19;20484;-76
2021/12/30 11:34:55;;;;;;;0.40;0.30;;;14.20;99.90;;;;;;9173313;19;20014;-74
2021/12/30 11:38:01;;;;;;;0.30;0.30;;;14.30;99.90;;;;;;9168512;19;20490;-76
2021/12/30 11:41:08;;;;;;;0.47;0.30;;;14.30;99.90;;;;;;9170127;19;20014;-75
2021/12/30 11:44:35;;;;;;;0.52;0.30;;;14.30;99.90;;;;;;9169234;19;20025;-75
2021/12/30 11:47:44;;;;;;;0.60;0.30;;;14.40;99.90;;;;;;9169967;19;20021;-75
2021/12/30 11:50:50;;;;;;;0.38;0.30;;;14.40;99.90;;;;;;9169913;19;20022;-75
2021/12/30 11:53:55;;;;;;;0.35;0.22;;;14.40;99.90;;;;;;9168164;19;20029;-75
2021/12/30 11:57:31;;;;;;;0.50;0.40;;;14.40;99.90;;;;;;9172373;19;20802;-76
2021/12/30 12:00:41;;;;;;;0.20;0.20;;;14.40;99.90;;;;;;9173210;19;20030;-75
2021/12/30 12:03:48;;;;;;;0.52;0.30;;;14.40;99.90;;;;;;9171207;19;20017;-75
2021/12/30 12:07:12;;;;;;;0.50;0.28;;;14.40;99.90;;;;;;9170885;19;20017;-75
2021/12/30 12:10:20;;;;;;;0.35;0.30;;;14.40;99.90;;;;;;9173492;19;20030;-74
2021/12/30 12:13:38;;;;;;;0.28;0.25;;;14.40;99.90;;;;;;9168271;19;20011;-75
2021/12/30 12:16:54;;;;;;;0.50;0.30;;;14.50;99.90;;;;;;9168518;19;20022;-75
2021/12/30 12:19:59;;;;;;;0.38;0.35;;;14.50;99.90;;;;;;9169609;19;20025;-76
2021/12/30 12:23:32;;;;;;;0.22;0.20;;;14.50;99.90;;;;;;9170121;19;20023;-76
2021/12/30 12:26:41;;;;;;;0.40;0.32;;;14.50;99.90;;;;;;9170679;19;20026;-75
2021/12/30 12:29:49;;;;;;;0.73;0.43;;;14.50;99.90;;;;;;9173419;19;20558;-75
2021/12/30 12:32:56;;;;;;;0.55;0.30;;;14.50;99.90;;;;;;9172122;19;20103;-76
2021/12/30 12:36:11;;;;;;;0.50;0.40;;;14.40;99.90;;;;;;9172074;19;20117;-75
2021/12/30 12:39:37;;;;;;;0.40;0.20;;;14.40;99.90;;;;;;9170395;19;20022;-76
2021/12/30 12:43:02;;;;;;;0.75;0.32;;;14.40;99.90;;;;;;9168486;19;20018;-75
2021/12/30 12:46:07;;;;;;;0.50;0.47;;;14.40;99.90;;;;;;9173610;19;20018;-75
2021/12/30 12:49:16;;;;;;;0.20;0.20;;;14.40;99.90;;;;;;9175942;19;20014;-77
2021/12/30 12:52:45;;;;;;;0.38;0.20;;;14.40;99.90;;;;;;9175386;19;20022;-75
2021/12/30 12:55:51;;;;;;;0.65;0.50;;;14.40;99.90;;;;;;9171693;19;20038;-74
2021/12/30 12:58:58;;;;;;;0.77;0.30;;;14.40;99.90;;;;;;9172109;19;20021;-74
2021/12/30 13:02:02;;;;;;;0.45;0.30;;;14.30;99.90;;;;;;9176062;19;20019;-75
2021/12/30 13:05:14;;;;;;;0.40;0.20;;;14.30;99.90;;;;;;9177860;19;20469;-74
2021/12/30 13:08:19;;;;;;;0.47;0.38;;;14.30;99.90;;;;;;9173593;19;20021;-75
2021/12/30 13:11:31;;;;;;;0.47;0.40;;;14.30;99.90;;;;;;9172735;19;20011;-75
2021/12/30 13:14:37;;;;;;;0.80;0.50;;;14.30;99.90;;;;;;9173911;19;20591;-76
2021/12/30 13:17:45;;;;;;;0.30;0.22;;;14.30;99.90;;;;;;9174082;19;20402;-75
2021/12/30 13:20:53;;;;;;;0.57;0.30;;;14.30;99.90;;;;;;9173806;19;20018;-75
2021/12/30 13:23:58;;;;;;;0.40;0.40;;;14.30;99.90;;;;;;9174841;19;20014;-75
2021/12/30 13:27:05;;;;;;;0.55;0.35;;;14.20;99.90;;;;;;9176652;19;20014;-74
2021/12/30 13:30:14;;;;;;;0.22;0.20;;;14.20;99.90;;;;;;9176051;19;20472;-76
2021/12/30 13:33:19;;;;;;;0.60;0.20;;;14.20;99.90;;;;;;9174611;19;20015;-76
2021/12/30 13:36:28;;;;;;;0.40;0.30;;;14.20;99.90;;;;;;9172680;19;20022;-76
2021/12/30 13:39:37;;;;;;;0.30;0.20;;;14.20;99.90;;;;;;9174427;19;20056;-75
2021/12/30 13:42:49;;;;;;;0.60;0.40;;;14.20;99.90;;;;;;9172343;19;20019;-76
2021/12/30 13:45:57;;;;;;;0.47;0.35;;;14.20;99.90;;;;;;9173231;19;20018;-75
2021/12/30 13:49:02;;;;;;;1.05;0.40;;;14.20;99.90;;;;;;9172918;19;20090;-75
2021/12/30 13:52:10;;;;;;;0.70;0.45;;;14.20;99.90;;;;;;9174235;19;20015;-76
2021/12/30 13:55:25;;;;;;;0.82;0.30;;;14.10;99.90;;;;;;9171582;19;20015;-76
2021/12/30 13:58:34;;;;;;;0.73;0.30;;;14.10;99.90;;;;;;9171446;19;20021;-76
2021/12/30 14:01:59;;;;;;;0.45;0.38;;;14.10;99.90;;;;;;9170488;19;20023;-74
2021/12/30 14:05:13;;;;;;;0.82;0.25;;;14.10;99.90;;;;;;9172795;19;20039;-75
2021/12/30 14:08:28;;;;;;;0.52;0.30;;;14.10;99.90;;;;;;9173394;19;20488;-75
2021/12/30 14:11:35;;;;;;;0.25;0.17;;;14.10;99.90;;;;;;9172566;19;20015;-76
2021/12/30 14:14:40;;;;;;;0.38;0.22;;;14.10;99.90;;;;;;9174215;19;20018;-73
2021/12/30 14:17:47;;;;;;;0.45;0.30;;;14.10;99.90;;;;;;9173976;19;20015;-76
2021/12/30 14:20:51;;;;;;;0.20;0.20;;;14.20;99.90;;;;;;9178553;19;20034;-75
2021/12/30 14:24:14;;;;;;;0.55;0.32;;;14.20;99.90;;;;;;9180826;19;20577;-76
2021/12/30 14:27:25;;;;;;;0.80;0.40;;;14.20;99.90;;;;;;9179619;19;20483;-75
2021/12/30 14:30:36;;;;;;;0.22;0.20;;;14.20;99.90;;;;;;9181342;19;20011;-76
2021/12/30 14:33:41;;;;;;;0.55;0.30;;;14.10;99.90;;;;;;9181211;19;20018;-75
2021/12/30 14:37:05;;;;;;;0.30;0.20;;;14.20;99.90;;;;;;9179589;19;20022;-75
2021/12/30 14:40:18;;;;;;;0.55;0.40;;;14.20;99.90;;;;;;9179202;19;20021;-76
2021/12/30 14:43:23;;;;;;;0.53;0.20;;;14.20;99.90;;;;;;9182447;19;20026;-74
2021/12/30 14:46:29;;;;;;;0.95;0.43;;;14.20;99.90;;;;;;9182542;19;20038;-74
2021/12/30 14:49:35;;;;;;;0.40;0.40;;;14.20;99.90;;;;;;9184036;19;20430;-74
2021/12/30 14:52:43;;;;;;;0.55;0.30;;;14.20;99.90;;;;;;9178364;19;20074;-75
2021/12/30 14:55:52;;;;;;;0.47;0.38;;;14.20;99.90;;;;;;9176829;19;20011;-75
2021/12/30 14:58:58;;;;;;;0.63;0.40;;;14.20;99.90;;;;;;9179454;19;20026;-75
2021/12/30 15:02:03;;;;;;;0.30;0.20;;;14.20;99.90;;;;;;9181091;19;20052;-75
2021/12/30 15:05:09;;;;;;;0.40;0.30;;;14.20;99.90;;;;;;9180102;19;20081;-74
2021/12/30 15:08:14;;;;;;;0.98;0.40;;;14.20;99.90;;;;;;9180930;19;20033;-76
2021/12/30 15:11:24;;;;;;;0.50;0.30;;;14.20;99.90;;;;;;9180813;19;20015;-76
2021/12/30 15:14:29;;;;;;;0.40;0.28;;;14.20;99.90;;;;;;9177906;19;20034;-76
2021/12/30 15:17:35;;;;;;;0.30;0.20;;;14.20;99.90;;;;;;9177660;19;20333;-75
2021/12/30 15:20:41;;;;;;;0.22;0.20;;;14.20;99.90;;;;;;9180265;19;20522;-75
2021/12/30 15:23:46;;;;;;;0.40;0.10;;;14.20;99.90;;;;;;9179755;19;20025;-76
2021/12/30 15:26:54;;;;;;;0.40;0.30;;;14.20;99.90;;;;;;9178920;19;20357;-75
2021/12/30 15:29:58;;;;;;;0.20;0.15;;;14.20;99.90;;;;;;9180564;19;20029;-75
2021/12/30 15:33:17;;;;;;;0.43;0.30;;;14.20;99.90;;;;;;9179994;19;20026;-75
2021/12/30 15:36:22;;;;;;;0.40;0.30;;;14.20;99.90;;;;;;9182200;19;20014;-76
2021/12/30 15:39:32;;;;;;;0.25;0.10;;;14.20;99.90;;;;;;9177003;19;20524;-76
2021/12/30 15:42:40;;;;;;;0.20;0.20;;;14.20;99.90;;;;;;9178853;19;20467;-75
2021/12/30 15:45:46;;;;;;;0.35;0.20;;;14.20;99.90;;;;;;9176387;19;20018;-77
2021/12/30 15:48:51;;;;;;;0.55;0.25;;;14.20;99.90;;;;;;9179626;19;20066;-77
2021/12/30 15:51:56;;;;;;;0.70;0.47;;;14.20;99.90;;;;;;9178546;19;20018;-76
2021/12/30 15:55:02;;;;;;;0.55;0.30;;;14.20;99.90;;;;;;9176779;19;20014;-76
2021/12/30 15:58:09;;;;;;;0.40;0.28;;;14.20;99.90;;;;;;9178034;19;20023;-75
2021/12/30 16:01:14;;;;;;;0.28;0.22;;;14.20;99.90;;;;;;9176961;19;20019;-75
2021/12/30 16:04:20;;;;;;;0.50;0.30;;;14.20;99.90;;;;;;9176389;19;20021;-75
2021/12/30 16:07:25;;;;;;;0.30;0.20;;;14.20;99.90;;;;;;9177607;19;20018;-76
2021/12/30 16:10:30;;;;;;;0.40;0.30;;;14.20;99.90;;;;;;9178204;19;20018;-75
2021/12/30 16:13:38;;;;;;;0.45;0.30;;;14.20;99.90;;;;;;9179403;19;20025;-76
2021/12/30 16:16:44;;;;;;;0.47;0.30;;;14.20;99.90;;;;;;9180127;19;20479;-75